This is the latest recevied weather packets stored in our database for station/object K0WXC-1. If no packets are shown the sender has not sent any weather packets the latest 10 day(s).
| Time | Temp. | Humidity | Pressure | Rain* | Wind** | Luminosity | Snow |
|---|---|---|---|---|---|---|---|
| 1777455448 | 9.44° C | 63% | 1004.6 hPa | 0 mm | 2.24 m/s, 318° | - | - |
| 1777455388 | 9.44° C | 63% | 1004.6 hPa | 0 mm | 2.24 m/s, 318° | - | - |
| 1777455329 | 9.44° C | 63% | 1004.6 hPa | 0 mm | 3.58 m/s, 9° | - | - |
| 1777455268 | 9.44° C | 63% | 1004.6 hPa | 0 mm | 3.58 m/s, 9° | - | - |
| 1777455208 | 9.44° C | 63% | 1004.6 hPa | 0 mm | 3.58 m/s, 9° | - | - |
| 1777455148 | 9.44° C | 63% | 1004.6 hPa | 0 mm | 3.58 m/s, 9° | - | - |
| 1777455088 | 9.44° C | 63% | 1004.6 hPa | 0 mm | 3.58 m/s, 9° | - | - |
| 1777455028 | 9.44° C | 64% | 1004.5 hPa | 0 mm | 3.13 m/s, 12° | - | - |
| 1777454968 | 9.44° C | 64% | 1004.5 hPa | 0 mm | 3.13 m/s, 12° | - | - |
| 1777454908 | 9.44° C | 64% | 1004.5 hPa | 0 mm | 3.13 m/s, 12° | - | - |
| 1777454848 | 9.44° C | 64% | 1004.5 hPa | 0 mm | 3.13 m/s, 12° | - | - |
| 1777454788 | 9.44° C | 64% | 1004.5 hPa | 0 mm | 3.13 m/s, 12° | - | - |
| 1777454728 | 9.44° C | 66% | 1004.6 hPa | 0 mm | 1.79 m/s, 4° | - | - |
| 1777454668 | 9.44° C | 66% | 1004.6 hPa | 0 mm | 1.79 m/s, 4° | - | - |
| 1777454608 | 9.44° C | 66% | 1004.6 hPa | 0 mm | 1.79 m/s, 4° | - | - |
| 1777454548 | 9.44° C | 66% | 1004.6 hPa | 0 mm | 1.79 m/s, 4° | - | - |
| 1777454488 | 9.44° C | 66% | 1004.6 hPa | 0 mm | 1.79 m/s, 4° | - | - |
| 1777454428 | 9.44° C | 65% | 1004.5 hPa | 0 mm | 1.34 m/s, 292° | - | - |
| 1777454368 | 9.44° C | 65% | 1004.5 hPa | 0 mm | 1.34 m/s, 292° | - | - |
| 1777454308 | 9.44° C | 65% | 1004.5 hPa | 0 mm | 1.34 m/s, 292° | - | - |
| 1777454248 | 9.44° C | 65% | 1004.5 hPa | 0 mm | 1.34 m/s, 292° | - | - |
| 1777454188 | 9.44° C | 65% | 1004.5 hPa | 0 mm | 1.34 m/s, 292° | - | - |
| 1777454128 | 9.44° C | 66% | 1004.3 hPa | 0 mm | 2.24 m/s, 20° | - | - |
| 1777454068 | 9.44° C | 66% | 1004.3 hPa | 0 mm | 2.24 m/s, 20° | - | - |
| 1777454008 | 9.44° C | 66% | 1004.3 hPa | 0 mm | 2.24 m/s, 20° | - | - |
* Rain latest hour (hover to see other rain measurements)
** Current wind speed in m/s (hover to see current wind gust speed)